KMUI

Muir AAF (Fort Indiantown Gap) Airport

Fort Indiantown Gap(Annville), Pennsylvania, USA
METAR KMUI 230956Z AUTO 00000KT 10SM SCT080 05/04 A3006 RMK AO2 SLP184 T00450035 $
Observed Flight Rules
Oct-23 @ 09:56 UTC (28 minutes ago) Visual Flight Rules
Visibility Clouds
10 miles
  • Scattered at 8,000' AGL
Temperatures Readings
Current 5°C / 41°F
Dewpoint 4°C / 39°F
Humidity 93%
Altimeter 30.06" Hg
Pressure 1018.4 hPa
Elevation 149
METAR KMUI 230956Z AUTO 00000KT 10SM SCT080 05/04 A3006 RMK AO2 SLP184 T00450035 $
Observed Flight Rules
Oct-23 @ 09:56 UTC
(28 minutes ago)
VFR
Clouds
  • Scattered at 8,000' AGL
Temperature Dewpoint
5°C / 41°F 4°C / 39°F
Humidity Altimeter Pressure
93% 30.06" Hg 1018.4 hPa